Time;durP1;ratioP1;P1;durP2;ratioP2;P2;SDS_P1;SDS_P2;PMS_P1;PMS_P2;Temp;Humidity;BMP_temperature;BMP_pressure;BME280_temperature;BME280_humidity;BME280_pressure;Samples;Min_cycle;Max_cycle;Signal;HPM_P1;HPM_P2
2024/01/11 00:00:09;;;;;;;26.10;15.52;;;;;;;-3.69;100.00;101123.81;5090727;28;20020;-72
2024/01/11 00:02:34;;;;;;;23.55;14.65;;;;;;;-3.70;100.00;101108.81;5091920;28;20035;-72
2024/01/11 00:04:59;;;;;;;22.58;14.48;;;;;;;-3.91;100.00;101043.28;5091212;28;20548;-76
2024/01/11 00:07:25;;;;;;;22.98;14.13;;;;;;;-3.79;100.00;101039.75;5091896;28;20067;-77
2024/01/11 00:09:50;;;;;;;25.77;15.63;;;;;;;-3.70;100.00;101117.13;5091789;28;20124;-71
2024/01/11 00:12:16;;;;;;;22.85;15.25;;;;;;;-3.67;100.00;101104.88;5073167;28;20032;-71
2024/01/11 00:14:41;;;;;;;23.05;14.68;;;;;;;-3.74;100.00;101112.81;5091665;28;20397;-71
2024/01/11 00:17:07;;;;;;;22.77;14.68;;;;;;;-3.81;100.00;101095.94;5091382;28;20028;-71
2024/01/11 00:19:32;;;;;;;28.67;18.52;;;;;;;-3.45;100.00;101088.47;5073502;28;20034;-71
2024/01/11 00:21:58;;;;;;;26.02;17.33;;;;;;;-3.48;100.00;101103.22;5091763;28;20031;-71
2024/01/11 00:24:23;;;;;;;26.77;17.05;;;;;;;-3.76;100.00;101093.63;5090914;28;20123;-72
2024/01/11 00:26:49;;;;;;;23.13;15.05;;;;;;;-4.00;100.00;101032.94;5091508;28;20490;-71
2024/01/11 00:29:14;;;;;;;23.30;15.35;;;;;;;-3.44;100.00;101100.09;5090842;28;20509;-71
2024/01/11 00:31:40;;;;;;;24.92;15.18;;;;;;;-3.85;100.00;101094.06;5074008;28;20115;-71
2024/01/11 00:34:08;;;;;;;33.63;20.90;;;;;;;-3.62;100.00;101080.22;5073324;28;20035;-73
2024/01/11 00:36:34;;;;;;;31.80;19.58;;;;;;;-4.20;100.00;100988.94;5091472;28;20230;-71
2024/01/11 00:39:00;;;;;;;26.33;17.10;;;;;;;-3.76;100.00;101081.22;5073112;28;20040;-71
2024/01/11 00:41:25;;;;;;;24.90;16.77;;;;;;;-3.63;100.00;101096.78;5087613;28;20486;-79
2024/01/11 00:43:51;;;;;;;29.77;17.70;;;;;;;-3.58;100.00;101105.28;5091299;28;20046;-71
2024/01/11 00:46:17;;;;;;;26.08;16.38;;;;;;;-3.83;100.00;101090.03;5087776;28;20088;-71
2024/01/11 00:48:42;;;;;;;25.67;16.55;;;;;;;-3.97;100.00;101073.63;5079355;28;20023;-76
2024/01/11 00:51:07;;;;;;;26.70;16.02;;;;;;;-4.07;100.00;101053.25;5097269;28;20024;-70
2024/01/11 00:53:33;;;;;;;24.15;16.35;;;;;;;-3.40;100.00;101119.34;5090978;28;20085;-70
2024/01/11 00:56:00;;;;;;;25.27;16.48;;;;;;;-3.49;100.00;101080.03;5091244;28;20506;-78
2024/01/11 00:58:25;;;;;;;24.52;15.48;;;;;;;-3.30;100.00;101081.69;5090345;28;20032;-70
2024/01/11 01:00:52;;;;;;;23.92;15.38;;;;;;;-4.04;100.00;100996.34;5090443;28;20028;-71
2024/01/11 01:03:19;;;;;;;23.42;15.15;;;;;;;-3.72;100.00;100999.50;5072854;28;20028;-71
2024/01/11 01:05:45;;;;;;;20.67;13.85;;;;;;;-3.60;100.00;101049.72;5090539;28;20032;-71
2024/01/11 01:08:11;;;;;;;22.95;14.98;;;;;;;-3.40;100.00;101095.34;5090498;28;20580;-70
2024/01/11 01:10:37;;;;;;;26.98;15.57;;;;;;;-3.96;100.00;101034.78;5091302;28;20103;-70
2024/01/11 01:13:03;;;;;;;25.63;15.52;;;;;;;-3.63;100.00;101071.09;5090639;28;20914;-70
2024/01/11 01:15:28;;;;;;;23.15;15.02;;;;;;;-3.68;100.00;101065.91;5072950;28;20032;-70
2024/01/11 01:17:54;;;;;;;26.00;15.75;;;;;;;-3.60;100.00;101067.09;5089489;28;20115;-72
2024/01/11 01:20:19;;;;;;;23.48;14.68;;;;;;;-3.42;100.00;101079.50;5072492;28;20032;-69
2024/01/11 01:22:45;;;;;;;22.85;14.02;;;;;;;-3.51;100.00;101031.91;5072254;28;20051;-70
2024/01/11 01:25:10;;;;;;;24.58;14.63;;;;;;;-3.76;100.00;101077.13;5090230;28;20032;-70
2024/01/11 01:27:36;;;;;;;22.65;14.93;;;;;;;-3.30;100.00;101051.88;5090718;28;20039;-70
2024/01/11 01:30:02;;;;;;;26.00;13.82;;;;;;;-3.37;100.00;101070.66;5091015;28;20032;-69
2024/01/11 01:32:27;;;;;;;24.10;15.38;;;;;;;-3.83;100.00;101025.47;5090066;28;20114;-70
2024/01/11 01:34:52;;;;;;;29.52;16.80;;;;;;;-3.40;100.00;101055.59;5072041;28;20490;-71
2024/01/11 01:37:18;;;;;;;24.33;15.48;;;;;;;-3.57;100.00;101034.13;5089948;28;20118;-70
2024/01/11 01:39:43;;;;;;;24.75;16.35;;;;;;;-4.02;100.00;100982.38;5071685;28;20050;-71
2024/01/11 01:42:09;;;;;;;26.98;15.15;;;;;;;-3.40;100.00;101044.78;5090591;28;20024;-69
2024/01/11 01:44:34;;;;;;;25.02;15.07;;;;;;;-3.45;100.00;101033.81;5071622;28;20143;-71
2024/01/11 01:47:02;;;;;;;23.58;14.52;;;;;;;-3.29;100.00;101028.75;5072030;28;20483;-70
2024/01/11 01:49:28;;;;;;;23.33;14.13;;;;;;;-3.23;100.00;101034.84;5088942;28;20141;-70
2024/01/11 01:51:54;;;;;;;22.52;14.13;;;;;;;-3.08;100.00;101034.63;5089709;28;20031;-70
2024/01/11 01:54:21;;;;;;;29.48;16.92;;;;;;;-3.18;100.00;101044.97;5089105;28;20039;-70
2024/01/11 01:56:47;;;;;;;25.38;15.73;;;;;;;-3.22;100.00;101031.56;5071690;28;20512;-71
2024/01/11 01:59:14;;;;;;;23.67;14.75;;;;;;;-3.08;100.00;101014.75;5072017;28;20067;-71
2024/01/11 02:01:40;;;;;;;24.40;15.10;;;;;;;-2.98;100.00;101020.19;5071983;28;20425;-72
2024/01/11 02:04:06;;;;;;;24.67;15.35;;;;;;;-3.24;100.00;100988.38;5089343;28;20028;-71
2024/01/11 02:06:34;;;;;;;25.20;15.20;;;;;;;-2.98;100.00;101047.53;5071144;28;20024;-76
2024/01/11 02:09:03;;;;;;;27.67;17.17;;;;;;;-3.15;100.00;101021.06;5071564;28;20485;-71
2024/01/11 02:11:28;;;;;;;32.80;20.75;;;;;;;-3.18;100.00;101012.66;5089530;28;20040;-70
2024/01/11 02:13:55;;;;;;;34.90;22.52;;;;;;;-3.29;100.00;100969.09;5071404;28;20035;-71
2024/01/11 02:16:20;;;;;;;29.52;18.27;;;;;;;-3.26;100.00;100970.06;5089150;28;20036;-71
2024/01/11 02:18:46;;;;;;;26.85;16.00;;;;;;;-3.41;100.00;100947.06;5070911;28;20035;-73
2024/01/11 02:21:14;;;;;;;26.75;15.93;;;;;;;-3.32;100.00;101013.69;5071731;28;20032;-72
2024/01/11 02:23:46;;;;;;;26.98;15.73;;;;;;;-3.36;100.00;100977.06;5089786;28;20031;-81
2024/01/11 02:26:15;;;;;;;27.85;16.42;;;;;;;-3.04;100.00;100982.63;5089842;28;20054;-71
2024/01/11 02:28:44;;;;;;;29.58;17.63;;;;;;;-3.57;100.00;100902.47;5088467;28;20039;-71
2024/01/11 02:31:12;;;;;;;31.30;18.30;;;;;;;-3.06;100.00;100999.13;5088602;28;20028;-74
2024/01/11 02:33:39;;;;;;;30.52;19.38;;;;;;;-3.23;100.00;100996.69;5070850;28;20031;-71
2024/01/11 02:36:05;;;;;;;30.35;19.38;;;;;;;-3.48;100.00;100951.66;5088995;28;20050;-73
2024/01/11 02:38:33;;;;;;;32.53;20.27;;;;;;;-3.56;100.00;100949.72;5070604;28;20028;-71
2024/01/11 02:40:59;;;;;;;48.03;29.08;;;;;;;-3.04;100.00;100995.06;5071022;28;20012;-72
2024/01/11 02:43:25;;;;;;;61.70;42.60;;;;;;;-3.12;100.00;101006.31;5086965;28;20562;-71
2024/01/11 02:45:55;;;;;;;55.15;39.65;;;;;;;-3.26;100.00;100994.91;5089385;28;20032;-71
2024/01/11 02:48:21;;;;;;;39.05;23.38;;;;;;;-3.47;100.00;100973.25;5087719;28;20028;-71
2024/01/11 02:50:47;;;;;;;35.47;20.25;;;;;;;-3.55;100.00;100939.00;5070330;28;20063;-71
2024/01/11 02:53:12;;;;;;;28.75;17.55;;;;;;;-3.56;100.00;100948.84;5088826;28;20028;-76
2024/01/11 02:55:38;;;;;;;29.40;17.77;;;;;;;-3.30;100.00;100975.69;5088855;28;20036;-70
2024/01/11 02:58:03;;;;;;;31.30;18.27;;;;;;;-3.48;100.00;100922.72;5088357;28;20074;-72
2024/01/11 03:00:29;;;;;;;30.90;19.27;;;;;;;-3.59;100.00;100927.25;5089330;28;20414;-70
2024/01/11 03:02:54;;;;;;;30.85;18.67;;;;;;;-3.66;100.00;100924.41;5088302;28;20035;-70
2024/01/11 03:05:19;;;;;;;33.83;19.00;;;;;;;-3.45;100.00;100936.91;5089118;28;20032;-71
2024/01/11 03:07:45;;;;;;;36.78;22.17;;;;;;;-3.21;100.00;100955.38;5069004;28;20028;-73
2024/01/11 03:10:10;;;;;;;32.03;18.67;;;;;;;-3.52;100.00;100920.88;5084316;28;20490;-76
2024/01/11 03:12:36;;;;;;;30.58;18.55;;;;;;;-3.27;100.00;100982.44;5088521;28;20044;-70
2024/01/11 03:15:02;;;;;;;32.72;19.85;;;;;;;-3.17;100.00;100969.63;5088680;28;20082;-73
2024/01/11 03:17:27;;;;;;;31.02;19.52;;;;;;;-3.48;100.00;100954.16;5088364;28;20047;-73
2024/01/11 03:19:53;;;;;;;30.83;19.08;;;;;;;-3.60;100.00;100910.63;5088140;28;20040;-69
2024/01/11 03:22:26;;;;;;;31.95;19.35;;;;;;;-3.26;100.00;100954.28;5070072;28;20698;-71
2024/01/11 03:24:51;;;;;;;32.25;19.73;;;;;;;-3.55;100.00;100948.09;5088330;28;20509;-74
2024/01/11 03:27:17;;;;;;;37.40;23.33;;;;;;;-3.34;100.00;100955.59;5069933;28;20024;-69
2024/01/11 03:29:42;;;;;;;40.00;25.90;;;;;;;-3.37;100.00;100891.75;5086862;28;20031;-80
2024/01/11 03:32:08;;;;;;;44.38;29.48;;;;;;;-3.64;100.00;100888.91;5087390;28;20027;-70
2024/01/11 03:34:34;;;;;;;45.80;27.77;;;;;;;-3.82;100.00;100892.22;5088011;28;20483;-70
2024/01/11 03:37:00;;;;;;;39.35;25.60;;;;;;;-3.81;100.00;100827.75;5069702;28;20032;-76
2024/01/11 03:39:25;;;;;;;38.55;25.55;;;;;;;-3.60;100.00;100863.44;5069159;28;20098;-71
2024/01/11 03:41:50;;;;;;;38.05;24.27;;;;;;;-3.74;100.00;100879.38;5070024;28;20052;-71
2024/01/11 03:44:16;;;;;;;36.95;23.23;;;;;;;-3.88;100.00;100790.19;5069010;28;20550;-76
2024/01/11 03:46:42;;;;;;;34.33;22.33;;;;;;;-4.08;100.00;100828.19;5085416;28;20051;-70
2024/01/11 03:49:10;;;;;;;40.58;23.33;;;;;;;-3.55;100.00;100876.06;5068445;28;20410;-71
2024/01/11 03:51:36;;;;;;;33.97;21.95;;;;;;;-3.91;100.00;100825.66;5085439;28;20031;-71
2024/01/11 03:54:01;;;;;;;28.98;17.00;;;;;;;-3.30;100.00;100885.38;5069968;28;20032;-71
2024/01/11 03:56:27;;;;;;;29.67;16.60;;;;;;;-3.34;100.00;100886.03;5087677;28;20111;-71
2024/01/11 03:58:52;;;;;;;25.85;16.30;;;;;;;-3.97;100.00;100824.53;5068609;28;20063;-75
2024/01/11 04:01:19;;;;;;;28.15;16.73;;;;;;;-3.86;100.00;100819.25;5086499;28;20024;-71
2024/01/11 04:03:44;;;;;;;31.80;19.92;;;;;;;-3.51;100.00;100840.63;5069915;28;20044;-72
2024/01/11 04:06:22;;;;;;;37.85;23.85;;;;;;;-3.95;100.00;100788.22;5086436;28;20081;-71
2024/01/11 04:08:48;;;;;;;36.25;23.02;;;;;;;-3.40;100.00;100873.34;5088782;28;20024;-72
2024/01/11 04:11:14;;;;;;;33.15;21.05;;;;;;;-3.57;100.00;100856.13;5086013;28;20098;-73
2024/01/11 04:13:39;;;;;;;35.83;20.38;;;;;;;-3.62;100.00;100846.75;5087948;28;20032;-76
2024/01/11 04:16:12;;;;;;;32.22;19.52;;;;;;;-4.11;100.00;100776.78;5087543;28;20490;-71
2024/01/11 04:18:37;;;;;;;34.70;19.83;;;;;;;-3.72;100.00;100834.72;5085682;28;20024;-80
2024/01/11 04:21:03;;;;;;;30.67;19.35;;;;;;;-3.48;100.00;100847.31;5086676;28;20032;-72
2024/01/11 04:23:29;;;;;;;56.42;30.85;;;;;;;-3.69;100.00;100793.50;5075035;28;20044;-72
2024/01/11 04:25:55;;;;;;;49.13;28.60;;;;;;;-3.67;100.00;100816.78;5070497;28;20036;-74
2024/01/11 04:28:20;;;;;;;46.40;25.20;;;;;;;-3.53;100.00;100819.84;5090218;28;20039;-73
2024/01/11 04:30:45;;;;;;;55.95;32.05;;;;;;;-4.08;100.00;100768.63;5078458;28;20112;-70
2024/01/11 04:33:11;;;;;;;56.08;34.38;;;;;;;-3.90;100.00;100770.25;5079474;28;20028;-72
2024/01/11 04:35:37;;;;;;;50.40;29.63;;;;;;;-3.86;100.00;100818.41;5084968;28;20418;-71
2024/01/11 04:38:03;;;;;;;42.38;27.30;;;;;;;-3.06;100.00;100854.94;5088833;28;20032;-71
2024/01/11 04:40:28;;;;;;;44.33;28.15;;;;;;;-3.42;100.00;100826.06;5090859;28;20101;-82
2024/01/11 04:42:54;;;;;;;41.47;26.13;;;;;;;-3.73;100.00;100823.97;5090882;28;20877;-71
2024/01/11 04:45:19;;;;;;;38.92;23.55;;;;;;;-3.87;100.00;100820.03;5089883;28;20114;-70
2024/01/11 04:47:46;;;;;;;36.08;23.67;;;;;;;-4.24;100.00;100752.25;5089996;28;20047;-70
2024/01/11 04:50:11;;;;;;;37.55;22.13;;;;;;;-4.15;100.00;100766.66;5088616;28;20043;-72
2024/01/11 04:52:37;;;;;;;35.47;22.52;;;;;;;-4.34;100.00;100712.09;5088584;28;20032;-71
2024/01/11 04:55:03;;;;;;;39.10;25.73;;;;;;;-3.97;100.00;100775.75;5090561;28;20472;-72
2024/01/11 04:57:28;;;;;;;39.05;26.55;;;;;;;-4.29;100.00;100751.19;5074002;28;20028;-72
2024/01/11 04:59:53;;;;;;;55.35;33.22;;;;;;;-3.75;100.00;100808.16;5089840;28;20679;-71
2024/01/11 05:02:22;;;;;;;55.60;33.58;;;;;;;-3.66;100.00;100803.56;5088951;28;20043;-70
2024/01/11 05:04:48;;;;;;;57.55;34.13;;;;;;;-3.64;100.00;100806.97;5089962;28;20062;-71
2024/01/11 05:07:13;;;;;;;54.25;33.45;;;;;;;-3.84;100.00;100805.25;5075758;28;20449;-70
2024/01/11 05:09:39;;;;;;;52.75;31.50;;;;;;;-4.16;100.00;100753.41;5073995;28;20056;-71
2024/01/11 05:12:05;;;;;;;49.28;29.63;;;;;;;-3.79;100.00;100823.72;5071275;28;20417;-71
2024/01/11 05:14:30;;;;;;;48.58;30.52;;;;;;;-3.68;100.00;100812.59;5089379;28;20111;-71
2024/01/11 05:16:56;;;;;;;44.33;27.02;;;;;;;-3.90;100.00;100826.53;5088822;28;20086;-71
2024/01/11 05:19:21;;;;;;;45.65;25.73;;;;;;;-3.81;100.00;100819.44;5088239;28;20024;-75
2024/01/11 05:21:50;;;;;;;48.90;26.83;;;;;;;-4.13;100.00;100812.25;5089983;28;20036;-75
2024/01/11 05:24:16;;;;;;;45.78;29.25;;;;;;;-3.84;100.00;100792.84;5073974;28;20445;-74
2024/01/11 05:26:41;;;;;;;51.63;30.80;;;;;;;-4.22;100.00;100796.97;5090488;28;20055;-70
2024/01/11 05:29:07;;;;;;;50.22;32.67;;;;;;;-4.18;100.00;100792.19;5089900;28;20446;-71
2024/01/11 05:31:32;;;;;;;62.40;38.42;;;;;;;-3.64;100.00;100799.50;5073643;28;20063;-69
2024/01/11 05:33:58;;;;;;;62.95;36.88;;;;;;;-3.84;100.00;100762.19;5088570;28;20024;-70
2024/01/11 05:36:23;;;;;;;67.35;42.08;;;;;;;-4.44;100.00;100718.28;5065848;28;20063;-72
2024/01/11 05:38:49;;;;;;;76.35;48.03;;;;;;;-4.22;100.00;100725.88;5087871;28;20020;-71
2024/01/11 05:41:14;;;;;;;86.43;53.25;;;;;;;-4.04;100.00;100775.44;5063477;28;20032;-70
2024/01/11 05:43:40;;;;;;;86.28;54.20;;;;;;;-4.18;100.00;100752.47;5088018;28;20550;-71
2024/01/11 05:46:07;;;;;;;83.57;50.70;;;;;;;-3.83;100.00;100818.53;5087804;28;20032;-71
2024/01/11 05:48:33;;;;;;;85.10;54.63;;;;;;;-4.06;100.00;100780.31;5073950;28;20106;-71
2024/01/11 05:50:58;;;;;;;88.10;53.17;;;;;;;-3.08;100.00;100845.69;5088826;28;20497;-77
2024/01/11 05:53:24;;;;;;;88.45;50.92;;;;;;;-3.81;100.00;100788.03;5089377;28;20028;-71
2024/01/11 05:55:50;;;;;;;92.55;54.03;;;;;;;-3.68;100.00;100799.31;5090141;28;20545;-70
2024/01/11 05:58:16;;;;;;;89.72;52.03;;;;;;;-4.08;100.00;100766.97;5089574;28;20119;-73
2024/01/11 06:00:41;;;;;;;80.18;48.47;;;;;;;-3.93;100.00;100782.53;5071575;28;20119;-70
2024/01/11 06:03:07;;;;;;;101.78;47.60;;;;;;;-4.04;100.00;100798.59;5089683;28;20036;-70
2024/01/11 06:05:33;;;;;;;130.10;54.38;;;;;;;-3.50;100.00;100834.84;5086689;28;20111;-70
2024/01/11 06:07:59;;;;;;;85.03;47.08;;;;;;;-3.71;100.00;100809.97;5088397;28;20036;-72
2024/01/11 06:10:24;;;;;;;74.68;45.80;;;;;;;-3.71;100.00;100789.25;5088249;28;20517;-72
2024/01/11 06:12:50;;;;;;;118.70;62.85;;;;;;;-3.59;100.00;100817.94;5088356;28;20136;-71
2024/01/11 06:15:15;;;;;;;106.43;66.30;;;;;;;-3.66;100.00;100815.13;5089368;28;20040;-70
2024/01/11 06:17:49;;;;;;;133.38;83.00;;;;;;;-3.59;100.00;100797.22;5089226;28;20456;-73
2024/01/11 06:20:14;;;;;;;154.65;91.35;;;;;;;-3.73;100.00;100804.09;5089411;28;20032;-70
2024/01/11 06:22:40;;;;;;;137.65;87.65;;;;;;;-3.82;100.00;100768.94;5089469;28;20486;-72
2024/01/11 06:25:05;;;;;;;129.40;78.88;;;;;;;-3.93;100.00;100791.63;5089469;28;20462;-71
2024/01/11 06:27:31;;;;;;;125.05;77.53;;;;;;;-4.23;100.00;100726.63;5088633;28;20082;-72
2024/01/11 06:29:56;;;;;;;118.50;73.80;;;;;;;-4.19;100.00;100688.75;5071269;28;20130;-70
2024/01/11 06:32:22;;;;;;;122.28;78.65;;;;;;;-3.57;100.00;100784.09;5089396;28;20550;-69
2024/01/11 06:34:47;;;;;;;138.30;87.22;;;;;;;-3.91;100.00;100750.34;5070268;28;20418;-70
2024/01/11 06:37:13;;;;;;;130.63;83.50;;;;;;;-3.82;100.00;100744.09;5089298;28;20027;-69
2024/01/11 06:39:38;;;;;;;155.52;83.45;;;;;;;-3.48;100.00;100770.31;5069635;28;20024;-70
2024/01/11 06:42:04;;;;;;;110.70;59.20;;;;;;;-3.40;100.00;100754.94;5088923;28;20039;-70
2024/01/11 06:44:30;;;;;;;87.80;51.42;;;;;;;-2.94;100.00;100770.03;5070399;28;20486;-76
2024/01/11 06:46:56;;;;;;;87.93;46.05;;;;;;;-2.21;100.00;100835.81;5070965;28;20111;-69
2024/01/11 06:49:21;;;;;;;70.82;36.47;;;;;;;-1.97;100.00;100827.59;5088351;28;20123;-70
2024/01/11 06:51:47;;;;;;;54.05;28.52;;;;;;;-2.69;100.00;100748.63;5069724;28;20027;-71
2024/01/11 06:54:12;;;;;;;69.38;35.63;;;;;;;-2.43;100.00;100778.56;5088676;28;20032;-70
2024/01/11 06:56:38;;;;;;;101.00;55.40;;;;;;;-1.40;100.00;100800.47;5088018;28;20123;-71
2024/01/11 06:59:03;;;;;;;89.90;51.63;;;;;;;-2.61;100.00;100761.34;5088311;28;20058;-70
2024/01/11 07:01:29;;;;;;;61.88;37.00;;;;;;;-2.64;100.00;100711.47;5088282;28;20533;-70
2024/01/11 07:03:54;;;;;;;61.53;37.88;;;;;;;-3.11;100.00;100686.50;5086641;28;20066;-70
2024/01/11 07:06:20;;;;;;;91.80;59.13;;;;;;;-3.03;100.00;100710.84;5070316;28;20406;-70
2024/01/11 07:08:45;;;;;;;109.80;64.95;;;;;;;-3.12;100.00;100652.47;5088164;28;20032;-77
2024/01/11 07:11:11;;;;;;;72.30;45.72;;;;;;;-3.13;100.00;100723.69;5081776;28;20055;-70
2024/01/11 07:13:36;;;;;;;43.80;26.92;;;;;;;-3.87;100.00;100671.09;5070041;28;20065;-73
2024/01/11 07:16:03;;;;;;;43.97;27.65;;;;;;;-3.66;100.00;100689.31;5087860;28;20514;-71
2024/01/11 07:18:28;;;;;;;58.83;36.22;;;;;;;-4.06;100.00;100646.28;5087908;28;20089;-72
2024/01/11 07:20:57;;;;;;;59.38;32.75;;;;;;;-3.56;100.00;100703.81;5087000;28;20028;-70
2024/01/11 07:23:23;;;;;;;41.47;25.52;;;;;;;-4.07;100.00;100688.41;5088534;28;20051;-72
2024/01/11 07:25:50;;;;;;;46.42;29.67;;;;;;;-3.59;100.00;100726.03;5070472;28;20056;-72
2024/01/11 07:28:17;;;;;;;48.70;30.60;;;;;;;-3.47;100.00;100729.78;5087501;28;20502;-72
2024/01/11 07:30:42;;;;;;;45.45;26.13;;;;;;;-3.34;100.00;100772.56;5088000;28;20028;-71
2024/01/11 07:33:09;;;;;;;38.05;23.33;;;;;;;-3.96;100.00;100698.00;5069438;28;20103;-71
2024/01/11 07:35:34;;;;;;;45.42;29.83;;;;;;;-2.99;100.00;100781.44;5069787;28;20059;-71
2024/01/11 07:38:00;;;;;;;51.78;28.58;;;;;;;-3.17;100.00;100786.50;5087277;28;20051;-71
2024/01/11 07:40:25;;;;;;;52.63;32.83;;;;;;;-3.22;100.00;100740.75;5087803;28;20476;-71
2024/01/11 07:42:51;;;;;;;49.20;29.25;;;;;;;-3.17;100.00;100779.06;5069803;28;20081;-71
2024/01/11 07:45:16;;;;;;;50.33;31.67;;;;;;;-3.13;100.00;100728.66;5069762;28;20658;-73
2024/01/11 07:47:46;;;;;;;49.42;29.10;;;;;;;-3.54;100.00;100729.56;5088292;28;20040;-70
2024/01/11 07:50:12;;;;;;;38.17;23.40;;;;;;;-3.48;100.00;100757.91;5087319;28;20059;-72
2024/01/11 07:52:38;;;;;;;40.85;24.55;;;;;;;-3.31;100.00;100775.19;5083458;28;20062;-71
2024/01/11 07:55:08;;;;;;;52.03;31.75;;;;;;;-2.92;100.00;100783.34;5087945;28;20097;-73
2024/01/11 07:57:43;;;;;;;43.22;26.92;;;;;;;-3.22;100.00;100738.28;5086652;28;20027;-71
2024/01/11 08:00:08;;;;;;;34.22;21.42;;;;;;;-2.57;100.00;100834.47;5069522;28;20032;-71
2024/01/11 08:02:34;;;;;;;36.70;21.00;;;;;;;-2.07;100.00;100867.91;5086979;28;20024;-70
2024/01/11 08:05:00;;;;;;;36.67;22.45;;;;;;;-2.38;100.00;100792.91;5088147;28;20032;-71
2024/01/11 08:07:29;;;;;;;35.58;21.95;;;;;;;-1.86;100.00;100868.66;5068568;28;20032;-74
2024/01/11 08:09:55;;;;;;;33.08;22.13;;;;;;;-2.16;100.00;100824.41;5085357;28;20028;-71
2024/01/11 08:12:20;;;;;;;34.05;21.45;;;;;;;-1.95;100.00;100868.34;5087925;28;20047;-71
2024/01/11 08:14:46;;;;;;;39.15;23.85;;;;;;;-1.89;100.00;100818.75;5088097;28;20088;-73
2024/01/11 08:17:13;;;;;;;43.40;26.33;;;;;;;-1.58;100.00;100853.03;5091658;28;20479;-71
2024/01/11 08:19:39;;;;;;;42.97;25.40;;;;;;;-1.48;100.00;100839.25;5091565;28;20101;-71
2024/01/11 08:22:05;;;;;;;43.95;25.33;;;;;;;-1.82;100.00;100805.72;5091422;28;20032;-71
2024/01/11 08:24:31;;;;;;;45.88;27.10;;;;;;;-1.66;100.00;100833.66;5073635;28;20383;-70
2024/01/11 08:26:57;;;;;;;47.53;29.55;;;;;;;-1.55;100.00;100837.34;5074089;28;20123;-74
2024/01/11 08:29:23;;;;;;;43.65;26.52;;;;;;;-1.55;100.00;100803.31;5100322;28;20075;-71
2024/01/11 08:31:48;;;;;;;43.20;26.20;;;;;;;-2.28;100.00;100746.78;5092628;28;20039;-73
2024/01/11 08:34:14;;;;;;;48.42;29.83;;;;;;;-1.77;100.00;100823.31;5090156;28;20027;-71
2024/01/11 08:36:39;;;;;;;42.42;26.92;;;;;;;-1.77;100.00;100798.41;5090561;28;20048;-71
2024/01/11 08:39:05;;;;;;;32.53;19.67;;;;;;;-2.24;100.00;100781.78;5091916;28;20064;-71
2024/01/11 08:41:31;;;;;;;28.42;19.02;;;;;;;-1.47;100.00;100835.97;5073671;28;20115;-72
2024/01/11 08:43:57;;;;;;;31.10;20.98;;;;;;;-1.18;100.00;100848.59;5073219;28;20124;-72
2024/01/11 08:46:26;;;;;;;34.42;20.38;;;;;;;-1.67;100.00;100794.56;5091797;28;20031;-71
2024/01/11 08:48:52;;;;;;;29.25;18.05;;;;;;;-1.14;100.00;100847.06;5090554;28;20032;-71
2024/01/11 08:51:18;;;;;;;29.33;17.48;;;;;;;-1.21;100.00;100837.69;5091133;28;20050;-71
2024/01/11 08:53:44;;;;;;;31.17;19.38;;;;;;;-1.33;100.00;100834.78;5073241;28;20032;-71
2024/01/11 08:56:09;;;;;;;26.92;17.40;;;;;;;-1.22;100.00;100835.97;5090916;28;20510;-70
2024/01/11 08:58:36;;;;;;;36.20;21.60;;;;;;;-1.74;100.00;100766.09;5090489;28;20073;-70
2024/01/11 09:01:02;;;;;;;32.63;18.88;;;;;;;-1.52;100.00;100777.63;5091250;28;20054;-71
2024/01/11 09:03:28;;;;;;;33.45;19.83;;;;;;;-1.54;100.00;100801.66;5084085;28;20032;-71
2024/01/11 09:05:56;;;;;;;29.20;17.50;;;;;;;-0.92;100.00;100855.31;5072025;28;20410;-70
2024/01/11 09:08:22;;;;;;;33.88;19.90;;;;;;;-1.51;100.00;100755.28;5090994;28;20024;-70
2024/01/11 09:10:48;;;;;;;23.30;16.13;;;;;;;-1.30;100.00;100770.06;5090448;28;20391;-71
2024/01/11 09:13:15;;;;;;;25.75;16.38;;;;;;;-1.36;100.00;100752.41;5072150;28;20032;-72
2024/01/11 09:15:41;;;;;;;23.90;15.43;;;;;;;-0.98;100.00;100769.44;5090019;28;20034;-70
2024/01/11 09:18:06;;;;;;;25.23;15.40;;;;;;;-1.25;100.00;100778.56;5090045;28;20028;-71
2024/01/11 09:20:32;;;;;;;25.70;16.73;;;;;;;-1.51;100.00;100727.84;5072151;28;20024;-71
2024/01/11 09:22:57;;;;;;;32.50;18.77;;;;;;;-1.26;100.00;100746.91;5089963;28;20391;-73
2024/01/11 09:25:23;;;;;;;28.25;17.27;;;;;;;-0.94;100.00;100758.75;5090272;28;20059;-70
2024/01/11 09:27:49;;;;;;;26.00;14.98;;;;;;;-0.62;100.00;100803.00;5089390;28;20070;-70
2024/01/11 09:30:15;;;;;;;20.48;11.80;;;;;;;-0.69;100.00;100726.22;5090557;28;20445;-70
2024/01/11 09:32:40;;;;;;;20.83;13.10;;;;;;;-1.15;100.00;100713.19;5071704;28;20129;-70
2024/01/11 09:35:06;;;;;;;20.67;13.95;;;;;;;-0.83;100.00;100769.88;5071776;28;20028;-70
2024/01/11 09:37:32;;;;;;;18.25;10.93;;;;;;;-1.31;100.00;100704.41;5072699;28;20023;-71
2024/01/11 09:39:57;;;;;;;19.60;13.00;;;;;;;-0.78;100.00;100725.13;5090761;28;20027;-72
2024/01/11 09:42:23;;;;;;;20.02;12.85;;;;;;;-0.12;100.00;100779.47;5090297;28;20058;-70
2024/01/11 09:44:48;;;;;;;16.90;9.90;;;;;;;-0.72;100.00;100696.19;5089825;28;20040;-75
2024/01/11 09:47:18;;;;;;;27.20;14.18;;;;;;;-0.69;100.00;100661.34;5090260;28;20055;-70
2024/01/11 09:49:45;;;;;;;17.15;11.10;;;;;;;-0.19;100.00;100730.13;5090005;28;20482;-69
2024/01/11 09:52:13;;;;;;;27.52;17.25;;;;;;;-0.28;100.00;100738.22;5089896;28;20062;-70
2024/01/11 09:54:40;;;;;;;16.05;10.57;;;;;;;-0.31;100.00;100680.72;5071633;28;20035;-73
2024/01/11 09:57:07;;;;;;;19.20;12.38;;;;;;;-0.31;100.00;100664.88;5089879;28;20059;-80
2024/01/11 09:59:33;;;;;;;17.52;11.80;;;;;;;0.05;100.00;100662.47;5071380;28;20036;-71
2024/01/11 10:02:00;;;;;;;25.77;14.35;;;;;;;0.24;100.00;100657.13;5071508;28;20394;-71
2024/01/11 10:04:27;;;;;;;17.73;10.30;;;;;;;0.19;100.00;100661.16;5089230;28;20028;-71
2024/01/11 10:06:54;;;;;;;19.65;13.52;;;;;;;0.31;100.00;100634.81;5089746;28;20024;-71
2024/01/11 10:09:20;;;;;;;19.35;12.80;;;;;;;0.57;100.00;100620.41;5090444;28;20026;-71
2024/01/11 10:11:45;;;;;;;19.50;11.75;;;;;;;0.20;100.00;100551.22;5089139;28;20048;-71
2024/01/11 10:14:14;;;;;;;16.67;10.60;;;;;;;-0.04;100.00;100514.03;5063512;28;20028;-71
2024/01/11 10:16:42;;;;;;;19.98;11.40;;;;;;;0.38;100.00;100556.63;5065143;28;20028;-70
2024/01/11 10:19:08;;;;;;;17.02;11.48;;;;;;;0.72;100.00;100541.53;5071069;28;20032;-71
2024/01/11 10:21:39;;;;;;;20.73;13.68;;;;;;;0.81;100.00;100545.88;5071618;28;20102;-70
2024/01/11 10:24:05;;;;;;;22.67;15.40;;;;;;;0.84;100.00;100568.47;5089332;28;20059;-69
2024/01/11 10:26:32;;;;;;;20.77;15.05;;;;;;;0.78;100.00;100523.31;5089496;28;20085;-70
2024/01/11 10:28:59;;;;;;;21.08;13.00;;;;;;;0.83;100.00;100516.75;5089258;28;20028;-70
2024/01/11 10:31:28;;;;;;;20.02;12.90;;;;;;;0.91;100.00;100497.72;5071097;28;20391;-75
2024/01/11 10:33:54;;;;;;;20.60;13.40;;;;;;;0.81;100.00;100468.34;5089671;28;20028;-69
2024/01/11 10:36:19;;;;;;;21.75;13.88;;;;;;;0.91;100.00;100486.88;5088710;28;20399;-71
2024/01/11 10:38:47;;;;;;;19.23;12.50;;;;;;;0.88;100.00;100445.09;5089145;28;20024;-70
2024/01/11 10:41:17;;;;;;;19.45;13.13;;;;;;;1.07;100.00;100426.25;5088943;28;20087;-73
2024/01/11 10:43:43;;;;;;;22.10;14.55;;;;;;;1.30;100.00;100419.97;5085091;28;20028;-75
2024/01/11 10:46:12;;;;;;;22.90;16.20;;;;;;;1.52;100.00;100445.38;5087470;28;20102;-70
2024/01/11 10:48:39;;;;;;;16.42;11.07;;;;;;;1.38;100.00;100445.97;5089159;28;20115;-71
2024/01/11 10:51:09;;;;;;;33.67;17.85;;;;;;;1.97;100.00;100456.91;5071021;28;20195;-72
2024/01/11 10:53:45;;;;;;;26.33;16.83;;;;;;;1.34;100.00;100399.16;5070762;28;20023;-70
2024/01/11 10:56:12;;;;;;;23.63;15.68;;;;;;;1.53;100.00;100422.00;5089243;28;20036;-70